createdAt,value
2017-10-07T00:00:06.903Z,11.86
2017-10-07T00:02:36.110Z,11.86
2017-10-07T00:05:06.120Z,11.87
2017-10-07T00:07:35.326Z,11.85
2017-10-07T00:10:04.556Z,11.80
2017-10-07T00:12:35.296Z,11.83
2017-10-07T00:15:04.515Z,11.89
2017-10-07T00:17:34.534Z,11.93
2017-10-07T00:20:03.743Z,11.97
2017-10-07T00:22:32.980Z,11.97
2017-10-07T00:25:02.198Z,11.96
2017-10-07T00:27:31.430Z,11.96
2017-10-07T00:30:01.404Z,11.96
2017-10-07T00:32:30.722Z,11.95
2017-10-07T00:35:00.705Z,11.97
2017-10-07T00:37:29.935Z,11.96
2017-10-07T00:39:59.151Z,11.99
2017-10-07T00:42:29.119Z,11.97
2017-10-07T00:44:58.354Z,11.98
2017-10-07T00:47:28.327Z,11.93
2017-10-07T00:49:57.567Z,11.90
2017-10-07T00:52:27.542Z,11.91
2017-10-07T00:54:56.771Z,11.89
2017-10-07T00:57:25.987Z,11.92
2017-10-07T00:59:55.951Z,11.91
2017-10-07T01:02:25.955Z,11.95
2017-10-07T01:04:55.163Z,11.91
2017-10-07T01:07:24.395Z,11.91
2017-10-07T01:09:54.474Z,11.87
2017-10-07T01:12:23.676Z,11.91
2017-10-07T01:14:52.888Z,11.89
2017-10-07T01:17:22.118Z,11.86
2017-10-07T01:19:52.211Z,11.82
2017-10-07T01:22:21.436Z,11.73
2017-10-07T01:24:51.416Z,11.82
2017-10-07T01:27:20.653Z,11.82
2017-10-07T01:29:50.643Z,11.82
2017-10-07T01:32:19.842Z,11.74
2017-10-07T01:34:49.078Z,11.68
2017-10-07T01:37:18.291Z,11.67
2017-10-07T01:39:47.518Z,11.67
2017-10-07T01:42:16.746Z,11.71
2017-10-07T01:44:46.732Z,11.66
2017-10-07T01:47:15.944Z,11.66
2017-10-07T01:49:45.191Z,11.67
2017-10-07T01:52:14.443Z,11.65
2017-10-07T01:54:43.658Z,11.66
2017-10-07T01:57:13.661Z,11.61
2017-10-07T01:59:42.867Z,11.63
2017-10-07T02:02:12.861Z,11.62
2017-10-07T02:04:42.109Z,11.61
2017-10-07T02:07:11.311Z,11.48
2017-10-07T02:09:40.523Z,11.41
2017-10-07T02:12:09.728Z,11.38
2017-10-07T02:14:38.962Z,11.39
2017-10-07T02:17:08.190Z,11.41
2017-10-07T02:19:37.402Z,11.42
2017-10-07T02:22:06.622Z,11.41
2017-10-07T02:24:36.603Z,11.37
2017-10-07T02:27:05.839Z,11.33
2017-10-07T02:29:35.054Z,11.39
2017-10-07T02:32:04.284Z,11.32
2017-10-07T02:34:34.287Z,11.34
2017-10-07T02:37:03.485Z,11.36
2017-10-07T02:39:33.481Z,11.34
2017-10-07T02:42:02.731Z,11.35
2017-10-07T02:44:31.961Z,11.42
2017-10-07T02:47:01.205Z,11.43
2017-10-07T02:49:31.190Z,11.40
2017-10-07T02:52:01.191Z,11.36
2017-10-07T02:54:30.460Z,11.34
2017-10-07T02:56:59.707Z,11.32
2017-10-07T02:59:28.929Z,11.31
2017-10-07T03:01:58.936Z,11.31
2017-10-07T03:04:28.138Z,11.25
2017-10-07T03:06:58.118Z,11.26
2017-10-07T03:09:27.314Z,11.25
2017-10-07T03:11:56.546Z,11.18
2017-10-07T03:14:26.519Z,11.19
2017-10-07T03:16:56.550Z,11.20
2017-10-07T03:19:25.760Z,11.21
2017-10-07T03:21:54.963Z,11.23
2017-10-07T03:24:24.954Z,11.23
2017-10-07T03:26:54.159Z,11.19
2017-10-07T03:29:23.383Z,11.09
2017-10-07T03:31:53.367Z,11.13
2017-10-07T03:34:22.588Z,11.11
2017-10-07T03:36:51.799Z,11.10
2017-10-07T03:39:21.797Z,11.07
2017-10-07T03:41:51.002Z,11.01
2017-10-07T03:44:21.012Z,11.02
2017-10-07T03:46:50.231Z,11.00
2017-10-07T03:49:20.201Z,10.94
2017-10-07T03:51:50.187Z,10.93
2017-10-07T03:54:19.426Z,10.97
2017-10-07T03:56:48.643Z,10.95
2017-10-07T03:59:17.843Z,10.94
2017-10-07T04:01:47.847Z,10.96
2017-10-07T04:04:17.066Z,10.90
2017-10-07T04:06:47.073Z,10.92
2017-10-07T04:09:16.265Z,10.86
2017-10-07T04:11:45.475Z,10.91
2017-10-07T04:14:15.456Z,10.93
2017-10-07T04:16:44.651Z,10.92
2017-10-07T04:19:13.892Z,10.93
2017-10-07T04:21:43.875Z,10.94
2017-10-07T04:24:13.115Z,10.87
2017-10-07T04:26:42.313Z,10.86
2017-10-07T04:29:11.520Z,10.85
2017-10-07T04:31:40.814Z,10.88
2017-10-07T04:34:10.029Z,10.84
2017-10-07T04:36:39.243Z,10.86
2017-10-07T04:39:08.440Z,10.85
2017-10-07T04:41:37.694Z,10.82
2017-10-07T04:44:06.909Z,10.83
2017-10-07T04:46:36.147Z,10.87
2017-10-07T04:49:05.335Z,10.81
2017-10-07T04:51:34.560Z,10.78
2017-10-07T04:54:04.543Z,10.76
2017-10-07T04:56:33.755Z,10.78
2017-10-07T04:59:02.964Z,10.80
2017-10-07T05:01:32.166Z,10.79
2017-10-07T05:04:01.387Z,10.80
2017-10-07T05:06:31.349Z,10.78
2017-10-07T05:09:00.599Z,10.80
2017-10-07T05:11:30.567Z,10.84
2017-10-07T05:13:59.783Z,10.86
2017-10-07T05:16:29.151Z,10.81
2017-10-07T05:18:58.338Z,10.81
2017-10-07T05:21:27.563Z,10.79
2017-10-07T05:23:56.771Z,10.80
2017-10-07T05:26:26.110Z,10.79
2017-10-07T05:28:55.331Z,10.74
2017-10-07T05:31:24.587Z,10.78
2017-10-07T05:33:53.783Z,10.72
2017-10-07T05:36:23.757Z,10.73
2017-10-07T05:38:52.970Z,10.72
2017-10-07T05:41:22.179Z,10.73
2017-10-07T05:43:51.403Z,10.79
2017-10-07T05:46:20.703Z,10.80
2017-10-07T05:48:50.780Z,10.83
2017-10-07T05:51:19.983Z,10.84
2017-10-07T05:53:49.228Z,10.88
2017-10-07T05:56:18.502Z,10.88
2017-10-07T05:58:48.661Z,10.84
2017-10-07T06:01:18.592Z,10.80
2017-10-07T06:03:47.819Z,10.78
2017-10-07T06:06:17.095Z,10.78
2017-10-07T06:08:46.345Z,10.79
2017-10-07T06:11:16.318Z,10.82
2017-10-07T06:13:45.519Z,10.84
2017-10-07T06:16:14.772Z,10.92
2017-10-07T06:18:44.006Z,10.96
2017-10-07T06:21:13.223Z,10.94
2017-10-07T06:23:42.443Z,10.96
2017-10-07T06:26:12.422Z,10.96
2017-10-07T06:28:41.623Z,10.95
2017-10-07T06:31:10.852Z,10.99
2017-10-07T06:33:40.852Z,10.99
2017-10-07T06:36:10.054Z,11.05
2017-10-07T06:38:39.252Z,11.02
2017-10-07T06:41:09.227Z,11.01
2017-10-07T06:43:38.527Z,11.01
2017-10-07T06:46:07.708Z,11.03
2017-10-07T06:48:37.664Z,11.03
2017-10-07T06:51:07.063Z,11.09
2017-10-07T06:53:36.339Z,11.10
2017-10-07T06:56:05.570Z,11.14
2017-10-07T06:58:34.800Z,11.22
2017-10-07T07:01:04.360Z,11.31
2017-10-07T07:03:33.572Z,11.29
2017-10-07T07:06:02.766Z,11.26
2017-10-07T07:08:31.995Z,11.34
2017-10-07T07:11:01.206Z,11.37
2017-10-07T07:13:30.428Z,11.36
2017-10-07T07:15:59.658Z,11.42
2017-10-07T07:18:28.860Z,11.41
2017-10-07T07:20:58.067Z,11.45
2017-10-07T07:23:28.066Z,11.49
2017-10-07T07:25:57.283Z,11.52
2017-10-07T07:28:27.275Z,11.51
2017-10-07T07:30:56.528Z,11.52
2017-10-07T07:33:25.763Z,11.58
2017-10-07T07:35:55.003Z,11.59
2017-10-07T07:38:24.211Z,11.60
2017-10-07T07:40:53.459Z,11.60
2017-10-07T07:43:22.685Z,11.62
2017-10-07T07:45:52.694Z,11.66
2017-10-07T07:48:22.675Z,11.67
2017-10-07T07:50:51.916Z,11.67
2017-10-07T07:53:21.901Z,11.69
2017-10-07T07:55:51.143Z,11.73
2017-10-07T07:58:20.368Z,11.76
2017-10-07T08:00:49.601Z,11.80
2017-10-07T08:03:18.823Z,11.86
2017-10-07T08:05:48.801Z,11.89
2017-10-07T08:08:18.012Z,11.91
2017-10-07T08:10:47.248Z,11.99
2017-10-07T08:13:16.493Z,12.06
2017-10-07T08:15:45.727Z,12.10
2017-10-07T08:18:14.936Z,12.17
2017-10-07T08:20:44.940Z,12.22
2017-10-07T08:23:15.013Z,12.29
2017-10-07T08:25:45.017Z,12.31
2017-10-07T08:28:14.218Z,12.32
2017-10-07T08:30:43.467Z,12.38
2017-10-07T08:33:13.524Z,12.39
2017-10-07T08:35:42.781Z,12.39
2017-10-07T08:38:12.030Z,12.39
2017-10-07T08:40:41.260Z,12.45
2017-10-07T08:43:10.488Z,12.47
2017-10-07T08:45:39.729Z,12.48
2017-10-07T08:48:08.983Z,12.52
2017-10-07T08:50:38.965Z,12.58
2017-10-07T08:53:08.176Z,12.56
2017-10-07T08:55:37.402Z,12.49
2017-10-07T08:58:06.634Z,12.53
2017-10-07T09:00:35.861Z,12.56
2017-10-07T09:03:05.107Z,12.58
2017-10-07T09:05:34.327Z,12.59
2017-10-07T09:08:03.524Z,12.62
2017-10-07T09:10:32.740Z,12.64
2017-10-07T09:13:02.042Z,12.66
2017-10-07T09:15:31.291Z,12.68
2017-10-07T09:18:01.287Z,12.68
2017-10-07T09:20:31.275Z,12.70
2017-10-07T09:23:00.503Z,12.75
2017-10-07T09:25:30.493Z,12.76
2017-10-07T09:27:59.714Z,12.76
2017-10-07T09:30:29.733Z,12.71
2017-10-07T09:32:59.738Z,12.65
2017-10-07T09:35:29.751Z,12.63
2017-10-07T09:37:59.795Z,12.63
2017-10-07T09:40:29.041Z,12.67
2017-10-07T09:42:58.249Z,12.65
2017-10-07T09:45:27.477Z,12.71
2017-10-07T09:47:56.971Z,12.77
2017-10-07T09:50:26.214Z,12.74
2017-10-07T09:52:55.525Z,12.77
2017-10-07T09:55:24.755Z,12.80
2017-10-07T09:57:53.963Z,12.85
2017-10-07T10:00:23.971Z,12.85
2017-10-07T10:02:53.674Z,12.89
2017-10-07T10:05:25.626Z,12.90
2017-10-07T10:07:55.033Z,12.97
2017-10-07T10:10:26.239Z,13.06
2017-10-07T10:12:55.617Z,13.06
2017-10-07T10:15:25.908Z,13.04
2017-10-07T10:17:55.159Z,13.07
2017-10-07T10:20:24.434Z,13.11
2017-10-07T10:22:53.672Z,13.17
2017-10-07T10:25:22.914Z,13.16
2017-10-07T10:27:52.957Z,13.15
2017-10-07T10:30:22.196Z,13.16
2017-10-07T10:32:51.433Z,13.10
2017-10-07T10:35:21.455Z,13.05
2017-10-07T10:37:51.428Z,13.04
2017-10-07T10:40:20.683Z,12.95
2017-10-07T10:42:49.935Z,12.94
2017-10-07T10:45:19.146Z,13.02
2017-10-07T10:47:48.385Z,13.00
2017-10-07T10:50:17.603Z,12.98
2017-10-07T10:52:46.859Z,12.95
2017-10-07T10:55:16.880Z,12.95
2017-10-07T10:57:46.114Z,12.97
2017-10-07T11:00:15.379Z,13.01
2017-10-07T11:02:44.690Z,13.01
2017-10-07T11:05:13.926Z,12.99
2017-10-07T11:07:43.170Z,12.91
2017-10-07T11:10:12.440Z,12.90
2017-10-07T11:12:41.671Z,12.89
2017-10-07T11:15:10.935Z,12.87
2017-10-07T11:17:40.164Z,12.75
2017-10-07T11:20:10.185Z,12.60
2017-10-07T11:22:39.429Z,12.49
2017-10-07T11:25:08.654Z,12.44
2017-10-07T11:27:37.843Z,12.31
2017-10-07T11:30:07.258Z,12.23
2017-10-07T11:32:37.244Z,12.13
2017-10-07T11:35:06.473Z,12.06
2017-10-07T11:37:35.674Z,12.04
2017-10-07T11:40:05.724Z,12.05
2017-10-07T11:42:35.032Z,11.99
2017-10-07T11:45:04.235Z,11.95
2017-10-07T11:47:33.467Z,11.87
2017-10-07T11:50:02.728Z,11.82
2017-10-07T11:52:31.962Z,11.78
2017-10-07T11:55:01.196Z,11.81
2017-10-07T11:57:30.405Z,11.77
2017-10-07T11:59:59.648Z,11.77
2017-10-07T12:02:28.908Z,11.76
2017-10-07T12:04:58.169Z,11.73
2017-10-07T12:07:27.375Z,11.66
2017-10-07T12:09:56.655Z,11.65
2017-10-07T12:12:25.851Z,11.57
2017-10-07T12:14:55.088Z,11.54
2017-10-07T12:17:24.331Z,11.52
2017-10-07T12:19:53.559Z,11.51
2017-10-07T12:22:23.539Z,11.52
2017-10-07T12:24:52.783Z,11.51
2017-10-07T12:27:22.002Z,11.54
2017-10-07T12:29:51.265Z,11.54
2017-10-07T12:32:21.259Z,11.52
2017-10-07T12:34:50.588Z,11.53
2017-10-07T12:37:19.868Z,11.55
2017-10-07T12:39:49.075Z,11.53
2017-10-07T12:42:18.290Z,11.51
2017-10-07T12:44:48.406Z,11.48
2017-10-07T12:47:17.587Z,11.50
2017-10-07T12:49:46.868Z,11.49
2017-10-07T12:52:16.097Z,11.49
2017-10-07T12:54:46.106Z,11.52
2017-10-07T12:57:15.339Z,11.49
2017-10-07T12:59:44.543Z,11.53
2017-10-07T13:02:13.799Z,11.54
2017-10-07T13:04:43.015Z,11.56
2017-10-07T13:07:12.250Z,11.56
2017-10-07T13:09:41.497Z,11.56
2017-10-07T13:12:11.487Z,11.53
2017-10-07T13:14:40.735Z,11.52
2017-10-07T13:17:10.006Z,11.51
2017-10-07T13:19:39.268Z,11.45
2017-10-07T13:22:08.917Z,11.45
2017-10-07T13:24:39.689Z,11.46
2017-10-07T13:27:08.912Z,11.45
2017-10-07T13:29:38.895Z,11.46
2017-10-07T13:32:08.143Z,11.44
2017-10-07T13:34:37.364Z,11.44
2017-10-07T13:37:06.617Z,11.48
2017-10-07T13:39:35.855Z,11.50
2017-10-07T13:42:05.073Z,11.52
2017-10-07T13:44:34.344Z,11.55
2017-10-07T13:47:04.384Z,11.50
2017-10-07T13:49:33.646Z,11.47
2017-10-07T13:52:02.865Z,11.50
2017-10-07T13:54:32.908Z,11.50
2017-10-07T13:57:02.116Z,11.50
2017-10-07T13:59:31.345Z,11.50
2017-10-07T14:02:01.338Z,11.49
2017-10-07T14:04:30.584Z,11.44
2017-10-07T14:07:00.607Z,11.43
2017-10-07T14:09:30.691Z,11.40
2017-10-07T14:11:59.965Z,11.44
2017-10-07T14:14:29.193Z,11.45
2017-10-07T14:16:58.442Z,11.43
2017-10-07T14:19:27.661Z,11.43
2017-10-07T14:21:56.911Z,11.44
2017-10-07T14:24:26.186Z,11.46
2017-10-07T14:26:55.411Z,11.46
2017-10-07T14:29:25.467Z,11.43
2017-10-07T14:31:54.733Z,11.44
2017-10-07T14:34:24.723Z,11.43
2017-10-07T14:36:53.994Z,11.44
2017-10-07T14:39:23.273Z,11.44
2017-10-07T14:41:52.658Z,11.49
2017-10-07T14:44:21.924Z,11.51
2017-10-07T14:46:51.289Z,11.52
2017-10-07T14:49:20.500Z,11.55
2017-10-07T14:51:49.745Z,11.60
2017-10-07T14:54:19.747Z,11.58
2017-10-07T14:56:49.762Z,11.56
2017-10-07T14:59:18.989Z,11.58
2017-10-07T15:01:48.219Z,11.56
2017-10-07T15:04:17.518Z,11.54
2017-10-07T15:06:46.712Z,11.52
2017-10-07T15:09:15.997Z,11.50
2017-10-07T15:11:45.206Z,11.55
2017-10-07T15:14:14.444Z,11.56
2017-10-07T15:16:43.679Z,11.54
2017-10-07T15:19:12.915Z,11.51
2017-10-07T15:21:42.989Z,11.51
2017-10-07T15:24:12.240Z,11.43
2017-10-07T15:26:41.498Z,11.49
2017-10-07T15:29:10.703Z,11.42
2017-10-07T15:31:39.950Z,11.45
2017-10-07T15:34:09.197Z,11.46
2017-10-07T15:36:38.439Z,11.48
2017-10-07T15:39:07.708Z,11.47
2017-10-07T15:41:36.941Z,11.48
2017-10-07T15:44:06.199Z,11.49
2017-10-07T15:46:35.431Z,11.49
2017-10-07T15:49:04.664Z,11.48
2017-10-07T15:51:33.896Z,11.49
2017-10-07T15:54:03.134Z,11.47
2017-10-07T15:56:32.370Z,11.49
2017-10-07T15:59:01.636Z,11.50
2017-10-07T16:01:30.846Z,11.50
2017-10-07T16:04:00.134Z,11.51
2017-10-07T16:06:29.378Z,11.51
2017-10-07T16:08:58.679Z,11.55
2017-10-07T16:11:27.939Z,11.54
2017-10-07T16:13:57.947Z,11.56
2017-10-07T16:16:27.182Z,11.53
2017-10-07T16:18:56.415Z,11.51
2017-10-07T16:21:25.692Z,11.51
2017-10-07T16:23:54.919Z,11.56
2017-10-07T16:26:24.195Z,11.55
2017-10-07T16:28:53.390Z,11.59
2017-10-07T16:31:22.678Z,11.57
2017-10-07T16:33:52.686Z,11.59
2017-10-07T16:36:21.914Z,11.59
2017-10-07T16:38:51.164Z,11.61
2017-10-07T16:41:20.407Z,11.59
2017-10-07T16:43:49.649Z,11.59
2017-10-07T16:46:19.634Z,11.59
2017-10-07T16:48:49.826Z,11.63
2017-10-07T16:51:19.072Z,11.59
2017-10-07T16:53:48.311Z,11.61
2017-10-07T16:56:17.540Z,11.61
2017-10-07T16:58:46.757Z,11.64
2017-10-07T17:01:15.973Z,11.65
2017-10-07T17:03:45.233Z,11.70
2017-10-07T17:06:15.212Z,11.75
2017-10-07T17:08:44.447Z,11.76
2017-10-07T17:11:14.439Z,11.75
2017-10-07T17:13:44.045Z,11.74
2017-10-07T17:16:13.236Z,11.74
2017-10-07T17:18:42.455Z,11.75
2017-10-07T17:21:11.684Z,11.74
2017-10-07T17:23:40.881Z,11.76
2017-10-07T17:26:10.896Z,11.78
2017-10-07T17:28:40.149Z,11.81
2017-10-07T17:31:10.219Z,11.78
2017-10-07T17:33:40.161Z,11.77
2017-10-07T17:36:09.417Z,11.82
2017-10-07T17:38:38.728Z,11.81
2017-10-07T17:41:07.943Z,11.80
2017-10-07T17:43:37.246Z,11.80
2017-10-07T17:46:07.416Z,11.85
2017-10-07T17:48:36.651Z,11.85
2017-10-07T17:51:06.799Z,11.85
2017-10-07T17:53:36.063Z,11.81
2017-10-07T17:56:05.314Z,11.81
2017-10-07T17:58:34.546Z,11.80
2017-10-07T18:01:03.810Z,11.84
2017-10-07T18:03:33.048Z,11.85
2017-10-07T18:06:02.317Z,11.84
2017-10-07T18:08:31.545Z,11.83
2017-10-07T18:11:00.768Z,11.79
2017-10-07T18:13:30.858Z,11.78
2017-10-07T18:16:00.083Z,11.82
2017-10-07T18:18:30.109Z,11.79
2017-10-07T18:20:59.415Z,11.81
2017-10-07T18:23:28.696Z,11.83
2017-10-07T18:25:58.815Z,11.87
2017-10-07T18:28:29.011Z,11.89
2017-10-07T18:30:58.249Z,11.90
2017-10-07T18:33:27.475Z,11.87
2017-10-07T18:35:56.810Z,11.85
2017-10-07T18:38:26.041Z,11.87
2017-10-07T18:40:56.239Z,11.88
2017-10-07T18:43:26.280Z,11.84
2017-10-07T18:45:55.499Z,11.87
2017-10-07T18:48:24.704Z,11.88
2017-10-07T18:50:54.700Z,11.86
2017-10-07T18:53:24.682Z,11.84
2017-10-07T18:55:54.699Z,11.81
2017-10-07T18:58:23.924Z,11.83
2017-10-07T19:00:53.159Z,11.86
2017-10-07T19:03:22.429Z,11.83
2017-10-07T19:05:51.640Z,11.86
2017-10-07T19:08:20.898Z,11.87
2017-10-07T19:10:50.899Z,11.89
2017-10-07T19:13:20.148Z,11.90
2017-10-07T19:15:49.450Z,11.88
2017-10-07T19:18:18.658Z,11.91
2017-10-07T19:20:48.002Z,11.89
2017-10-07T19:23:17.202Z,11.88
2017-10-07T19:25:47.217Z,11.86
2017-10-07T19:28:17.209Z,11.85
2017-10-07T19:30:47.268Z,11.83
2017-10-07T19:33:16.569Z,11.81
2017-10-07T19:35:45.869Z,11.80
2017-10-07T19:38:15.839Z,11.77
2017-10-07T19:40:45.086Z,11.80
2017-10-07T19:43:14.318Z,11.77
2017-10-07T19:45:43.543Z,11.76
2017-10-07T19:48:12.759Z,11.77
2017-10-07T19:50:42.888Z,11.79
2017-10-07T19:53:12.204Z,11.80
2017-10-07T19:55:41.443Z,11.79
2017-10-07T19:58:10.737Z,11.82
2017-10-07T20:00:40.025Z,11.84
2017-10-07T20:03:09.258Z,11.87
2017-10-07T20:05:38.676Z,11.87
2017-10-07T20:08:08.680Z,11.87
2017-10-07T20:10:37.959Z,11.84
2017-10-07T20:13:07.189Z,11.86
2017-10-07T20:15:37.228Z,11.84
2017-10-07T20:18:06.573Z,11.85
2017-10-07T20:20:37.031Z,11.88
2017-10-07T20:23:09.232Z,11.89
2017-10-07T20:25:38.464Z,11.93
2017-10-07T20:28:07.714Z,11.93
2017-10-07T20:30:37.729Z,11.94
2017-10-07T20:33:06.927Z,11.92
2017-10-07T20:35:36.198Z,11.90
2017-10-07T20:38:05.372Z,11.91
2017-10-07T20:40:34.579Z,11.89
2017-10-07T20:43:03.833Z,11.88
2017-10-07T20:45:33.024Z,11.85
2017-10-07T20:48:02.242Z,11.84
2017-10-07T20:50:32.231Z,11.84
2017-10-07T20:53:02.227Z,11.84
2017-10-07T20:55:32.229Z,11.88
2017-10-07T20:58:01.521Z,11.85
2017-10-07T21:00:30.816Z,11.84
2017-10-07T21:03:00.073Z,11.88
2017-10-07T21:05:29.319Z,11.86
2017-10-07T21:07:58.548Z,11.91
2017-10-07T21:10:27.802Z,11.85
2017-10-07T21:12:57.078Z,11.83
2017-10-07T21:15:26.305Z,11.86
2017-10-07T21:17:55.541Z,11.85
2017-10-07T21:20:25.029Z,11.84
2017-10-07T21:22:55.019Z,11.87
2017-10-07T21:25:24.383Z,11.90
2017-10-07T21:27:53.729Z,11.91
2017-10-07T21:30:22.979Z,11.89
2017-10-07T21:32:52.244Z,11.89
2017-10-07T21:35:22.262Z,11.82
2017-10-07T21:37:51.534Z,11.80
2017-10-07T21:40:20.726Z,11.80
2017-10-07T21:42:49.999Z,11.85
2017-10-07T21:45:19.274Z,11.82
2017-10-07T21:47:48.538Z,11.79
2017-10-07T21:50:17.755Z,11.83
2017-10-07T21:52:47.771Z,11.84
2017-10-07T21:55:17.769Z,11.89
2017-10-07T21:57:47.014Z,11.93
2017-10-07T22:00:16.255Z,11.89
2017-10-07T22:02:45.482Z,11.88
2017-10-07T22:05:15.485Z,11.85
2017-10-07T22:07:45.005Z,11.80
2017-10-07T22:10:14.988Z,11.78
2017-10-07T22:12:44.218Z,11.76
2017-10-07T22:15:14.227Z,11.76
2017-10-07T22:17:44.213Z,11.76
2017-10-07T22:20:13.436Z,11.79
2017-10-07T22:22:42.747Z,11.80
2017-10-07T22:25:14.158Z,11.84
2017-10-07T22:27:45.289Z,11.84
2017-10-07T22:30:14.527Z,11.87
2017-10-07T22:32:44.608Z,11.88
2017-10-07T22:35:13.857Z,11.87
2017-10-07T22:37:43.849Z,11.86
2017-10-07T22:40:13.095Z,11.82
2017-10-07T22:42:42.382Z,11.86
2017-10-07T22:45:12.511Z,11.91
2017-10-07T22:47:42.592Z,11.91
2017-10-07T22:50:12.583Z,11.92
2017-10-07T22:52:41.816Z,11.94
2017-10-07T22:55:11.061Z,11.92
2017-10-07T22:57:40.310Z,11.96
2017-10-07T23:00:10.351Z,11.99
2017-10-07T23:02:39.591Z,11.99
2017-10-07T23:05:09.061Z,11.96
2017-10-07T23:07:39.038Z,11.94
2017-10-07T23:10:09.034Z,11.92
2017-10-07T23:12:38.354Z,12.01
2017-10-07T23:15:08.356Z,12.00
2017-10-07T23:17:37.609Z,12.02
2017-10-07T23:20:06.821Z,12.03
2017-10-07T23:22:36.080Z,12.00
2017-10-07T23:25:05.312Z,12.03
2017-10-07T23:27:35.387Z,12.00
2017-10-07T23:30:04.675Z,12.00
2017-10-07T23:32:34.698Z,12.04
2017-10-07T23:35:04.721Z,12.04
2017-10-07T23:37:33.964Z,12.07
2017-10-07T23:40:03.245Z,12.07
2017-10-07T23:42:32.459Z,12.07
2017-10-07T23:45:01.681Z,12.11
2017-10-07T23:47:30.917Z,12.17
2017-10-07T23:50:00.159Z,12.17
2017-10-07T23:52:29.378Z,12.18
2017-10-07T23:54:58.637Z,12.22
2017-10-07T23:57:27.890Z,12.20
2017-10-07T23:59:57.914Z,12.20
